Time;durP1;ratioP1;P1;durP2;ratioP2;P2;SDS_P1;SDS_P2;PMS_P1;PMS_P2;Temp;Humidity;BMP_temperature;BMP_pressure;BME280_temperature;BME280_humidity;BME280_pressure;Samples;Min_cycle;Max_cycle;Signal;HPM_P1;HPM_P2
2022/12/26 00:02:02;;;;;;;3.42;1.73;;;12.00;99.90;;;;;;4899063;29;20429;-81
2022/12/26 00:04:29;;;;;;;2.78;2.15;;;12.00;99.90;;;;;;4891352;29;20802;-82
2022/12/26 00:07:16;;;;;;;1.88;1.45;;;12.00;99.90;;;;;;4898939;29;20064;-82
2022/12/26 00:09:43;;;;;;;3.53;1.55;;;12.00;99.90;;;;;;4888998;29;20052;-82
2022/12/26 00:12:09;;;;;;;1.98;1.70;;;12.10;99.90;;;;;;4882728;29;20091;-80
2022/12/26 00:14:38;;;;;;;2.05;1.63;;;12.10;99.90;;;;;;4882948;29;20515;-82
2022/12/26 00:17:04;;;;;;;1.92;1.50;;;12.10;99.90;;;;;;4884634;29;20049;-82
2022/12/26 00:19:31;;;;;;;2.17;1.38;;;12.20;99.90;;;;;;4883086;29;20055;-81
2022/12/26 00:21:58;;;;;;;4.30;1.63;;;12.20;99.90;;;;;;4882775;29;20053;-81
2022/12/26 00:24:25;;;;;;;2.35;1.67;;;12.30;99.90;;;;;;4888478;29;20059;-82
2022/12/26 00:26:51;;;;;;;1.48;1.33;;;12.40;99.90;;;;;;4901475;29;20059;-82
2022/12/26 00:29:18;;;;;;;2.13;1.48;;;12.40;99.90;;;;;;4891480;29;20070;-82
2022/12/26 00:31:45;;;;;;;1.52;1.40;;;12.60;99.90;;;;;;4885337;29;20049;-80
2022/12/26 00:34:12;;;;;;;2.35;1.50;;;12.60;99.90;;;;;;4891531;29;20053;-81
2022/12/26 00:36:39;;;;;;;2.50;1.40;;;12.70;99.90;;;;;;4893819;29;20053;-82
2022/12/26 00:39:06;;;;;;;1.83;1.13;;;12.70;99.90;;;;;;4897773;29;20088;-82
2022/12/26 00:41:32;;;;;;;2.47;1.30;;;12.80;99.90;;;;;;4896554;29;20052;-81
2022/12/26 00:43:59;;;;;;;5.18;1.65;;;12.80;99.90;;;;;;4895556;29;20713;-80
2022/12/26 00:46:26;;;;;;;2.03;1.58;;;12.80;99.90;;;;;;4884708;29;20053;-81
2022/12/26 00:48:53;;;;;;;1.67;1.50;;;12.80;99.90;;;;;;4893139;29;20136;-81
2022/12/26 00:51:20;;;;;;;2.42;1.88;;;12.80;99.90;;;;;;4884425;29;20057;-81
2022/12/26 00:53:47;;;;;;;2.08;1.40;;;12.90;99.90;;;;;;4894948;29;20107;-83
2022/12/26 00:56:14;;;;;;;2.00;1.55;;;12.90;99.90;;;;;;4909269;29;20061;-83
2022/12/26 00:58:41;;;;;;;2.67;1.52;;;12.90;99.90;;;;;;4915887;29;20066;-84
2022/12/26 01:01:12;;;;;;;1.70;1.40;;;12.90;99.90;;;;;;4912535;29;20068;-83
2022/12/26 01:03:39;;;;;;;2.45;1.40;;;13.00;99.90;;;;;;4914808;29;20053;-83
2022/12/26 01:06:06;;;;;;;2.53;1.45;;;13.00;99.90;;;;;;4913347;29;20079;-79
2022/12/26 01:08:33;;;;;;;3.13;1.40;;;13.00;99.90;;;;;;4914407;29;20415;-80
2022/12/26 01:11:09;;;;;;;2.10;1.50;;;13.00;99.90;;;;;;4912057;29;20057;-80
2022/12/26 01:13:36;;;;;;;2.10;1.25;;;13.00;99.90;;;;;;4905163;29;20056;-82
2022/12/26 01:16:04;;;;;;;2.92;1.50;;;13.00;99.90;;;;;;4896618;29;20463;-81
2022/12/26 01:18:31;;;;;;;1.90;1.55;;;13.00;99.90;;;;;;4893918;29;20060;-82
2022/12/26 01:21:06;;;;;;;3.28;1.63;;;13.00;99.90;;;;;;4887868;29;20421;-82
2022/12/26 01:23:32;;;;;;;1.65;1.25;;;13.00;99.90;;;;;;4892835;29;20056;-81
2022/12/26 01:25:59;;;;;;;1.70;1.40;;;12.90;99.90;;;;;;4890919;29;20551;-83
2022/12/26 01:28:49;;;;;;;3.65;1.35;;;13.00;99.90;;;;;;4885936;29;20543;-82
2022/12/26 01:31:17;;;;;;;3.05;1.35;;;13.00;99.90;;;;;;4894585;29;20048;-82
2022/12/26 01:33:44;;;;;;;2.63;1.48;;;13.00;99.90;;;;;;4896936;29;20087;-82
2022/12/26 01:36:11;;;;;;;2.97;1.13;;;13.00;99.90;;;;;;4889278;29;20526;-82
2022/12/26 01:38:38;;;;;;;4.13;1.55;;;13.00;99.90;;;;;;4888421;29;20053;-81
2022/12/26 01:41:18;;;;;;;2.95;1.40;;;13.00;99.90;;;;;;4887137;29;20061;-81
2022/12/26 01:43:58;;;;;;;3.42;1.30;;;13.00;99.90;;;;;;4895504;29;20064;-82
2022/12/26 01:46:44;;;;;;;1.67;1.45;;;13.00;99.90;;;;;;4887665;29;20063;-82
2022/12/26 01:49:18;;;;;;;3.10;1.45;;;13.00;99.90;;;;;;4894811;29;20056;-81
2022/12/26 01:51:51;;;;;;;2.95;1.30;;;13.00;99.90;;;;;;4887108;29;20131;-81
2022/12/26 01:54:18;;;;;;;2.25;1.40;;;13.00;99.90;;;;;;4892701;29;20052;-81
2022/12/26 01:57:11;;;;;;;2.97;1.45;;;13.00;99.90;;;;;;4896881;29;20063;-81
2022/12/26 01:59:40;;;;;;;3.35;1.58;;;13.00;99.90;;;;;;4886808;29;20503;-81
2022/12/26 02:02:08;;;;;;;1.73;1.38;;;12.90;99.90;;;;;;4885529;29;20057;-81
2022/12/26 02:07:25;;;;;;;2.45;1.52;;;12.90;99.90;;;;;;4885467;29;20053;-82
2022/12/26 02:09:52;;;;;;;2.25;1.60;;;13.00;99.90;;;;;;4890489;29;20561;-82
2022/12/26 02:12:29;;;;;;;3.17;1.35;;;13.10;99.90;;;;;;4885905;29;20085;-81
2022/12/26 02:15:10;;;;;;;3.10;1.77;;;13.20;99.90;;;;;;4894158;29;20048;-81
2022/12/26 02:17:38;;;;;;;3.15;2.30;;;13.10;99.90;;;;;;4885038;29;20049;-82
2022/12/26 02:20:13;;;;;;;2.25;1.30;;;13.20;99.90;;;;;;4895857;29;20045;-81
2022/12/26 02:23:03;;;;;;;2.78;1.25;;;13.20;99.90;;;;;;4890676;29;20076;-82
2022/12/26 02:26:08;;;;;;;2.95;1.52;;;13.20;99.90;;;;;;4893451;29;20067;-82
2022/12/26 02:29:22;;;;;;;2.42;1.50;;;13.20;99.90;;;;;;4897522;29;20079;-81
2022/12/26 02:32:17;;;;;;;2.38;1.40;;;13.20;99.90;;;;;;4889544;29;20060;-83
2022/12/26 02:35:02;;;;;;;2.00;1.30;;;13.30;99.90;;;;;;4896146;29;20064;-82
2022/12/26 02:37:48;;;;;;;2.08;1.58;;;13.20;99.90;;;;;;4894709;29;20083;-82
2022/12/26 02:40:20;;;;;;;2.83;1.20;;;13.20;99.90;;;;;;4896550;29;20059;-81
2022/12/26 02:43:09;;;;;;;1.17;1.08;;;13.20;99.90;;;;;;4886224;29;20064;-81
2022/12/26 02:49:02;;;;;;;2.70;1.38;;;13.20;99.90;;;;;;4891790;29;20060;-82
2022/12/26 03:14:46;;;;;;;2.28;1.40;;;13.20;99.90;;;;;;4889383;29;20055;-82
2022/12/26 03:17:36;;;;;;;2.53;1.40;;;13.20;99.90;;;;;;4891359;29;20053;-82
2022/12/26 03:20:25;;;;;;;1.85;1.40;;;13.30;99.90;;;;;;4894733;29;20048;-82
2022/12/26 03:23:14;;;;;;;2.53;1.10;;;13.20;99.90;;;;;;4880895;29;20138;-82
2022/12/26 03:28:32;;;;;;;2.50;1.23;;;13.30;99.90;;;;;;4885885;29;20054;-82
2022/12/26 03:31:03;;;;;;;4.65;1.33;;;13.30;99.90;;;;;;4895647;29;20049;-83
2022/12/26 03:36:38;;;;;;;1.42;1.10;;;13.30;99.90;;;;;;4894570;29;20056;-81
2022/12/26 04:21:02;;;;;;;2.25;1.20;;;13.60;99.90;;;;;;4890853;29;20048;-81
2022/12/26 04:46:30;;;;;;;2.28;1.50;;;13.70;99.90;;;;;;4891117;29;20088;-82
2022/12/26 04:51:44;;;;;;;1.92;1.30;;;13.70;99.90;;;;;;4892866;29;20049;-82
2022/12/26 04:54:10;;;;;;;2.05;1.17;;;13.60;99.90;;;;;;4897843;29;20072;-81
2022/12/26 04:56:37;;;;;;;1.42;1.00;;;13.60;99.90;;;;;;4892178;29;20136;-81
2022/12/26 04:59:04;;;;;;;4.22;1.35;;;13.60;99.90;;;;;;4891528;29;20567;-79
2022/12/26 05:09:55;;;;;;;2.92;1.30;;;13.70;99.90;;;;;;4889477;29;20115;-82
2022/12/26 05:12:22;;;;;;;2.55;1.60;;;13.70;99.90;;;;;;4893863;29;20483;-82
2022/12/26 05:14:49;;;;;;;2.85;1.48;;;13.60;99.90;;;;;;4887245;29;20052;-81
2022/12/26 05:31:12;;;;;;;2.60;1.33;;;13.70;99.90;;;;;;4882756;29;20442;-81
2022/12/26 05:36:29;;;;;;;2.55;1.20;;;13.70;99.90;;;;;;4898380;29;20045;-82
2022/12/26 05:38:55;;;;;;;1.90;1.40;;;13.70;99.90;;;;;;4899227;29;20524;-80
2022/12/26 05:41:23;;;;;;;3.42;1.13;;;13.70;99.90;;;;;;4898040;29;20048;-80
2022/12/26 05:43:49;;;;;;;4.68;1.40;;;13.70;99.90;;;;;;4895050;29;20055;-80
2022/12/26 05:46:16;;;;;;;2.10;1.17;;;13.70;99.90;;;;;;4886967;29;20056;-79
2022/12/26 05:48:43;;;;;;;1.95;1.27;;;13.70;99.90;;;;;;4894708;29;20104;-80
2022/12/26 05:51:10;;;;;;;2.22;1.02;;;13.70;99.90;;;;;;4885972;29;20059;-80
2022/12/26 05:53:37;;;;;;;1.83;1.30;;;13.70;99.90;;;;;;4884511;29;20465;-80
2022/12/26 05:56:11;;;;;;;1.98;1.20;;;13.80;99.90;;;;;;4894140;29;20506;-80
2022/12/26 05:58:39;;;;;;;2.83;1.20;;;13.70;99.90;;;;;;4886137;29;20049;-81
2022/12/26 06:01:18;;;;;;;2.17;1.25;;;13.80;99.90;;;;;;4892743;29;20050;-79
2022/12/26 06:03:47;;;;;;;1.98;1.23;;;13.70;99.90;;;;;;4892386;29;20053;-79
2022/12/26 06:06:15;;;;;;;3.05;1.30;;;13.70;99.90;;;;;;4884928;29;20049;-80
2022/12/26 06:08:41;;;;;;;2.45;1.20;;;13.80;99.90;;;;;;4888823;29;20056;-80
2022/12/26 06:11:11;;;;;;;2.30;1.42;;;13.80;99.90;;;;;;4905819;29;20108;-82
2022/12/26 06:13:38;;;;;;;1.92;1.15;;;13.80;99.90;;;;;;4913183;29;20104;-83
2022/12/26 06:16:06;;;;;;;2.65;1.70;;;13.80;99.90;;;;;;4915050;29;20035;-82
2022/12/26 06:18:34;;;;;;;1.40;1.30;;;13.80;99.90;;;;;;4913854;29;20040;-83
2022/12/26 06:21:06;;;;;;;2.60;1.20;;;13.80;99.90;;;;;;4913742;29;20065;-83
2022/12/26 06:23:34;;;;;;;2.88;0.90;;;13.80;99.90;;;;;;4890844;29;20116;-80
2022/12/26 06:26:01;;;;;;;1.63;1.30;;;13.80;99.90;;;;;;4882761;29;20054;-79
2022/12/26 06:28:27;;;;;;;2.40;1.40;;;13.90;99.90;;;;;;4882700;29;20140;-81
2022/12/26 06:31:02;;;;;;;1.83;1.23;;;13.90;99.90;;;;;;4882967;29;20052;-81
2022/12/26 06:33:28;;;;;;;3.17;1.20;;;13.90;99.90;;;;;;4899470;29;20056;-80
2022/12/26 06:36:20;;;;;;;1.50;1.20;;;13.90;99.90;;;;;;4887619;29;20056;-81
2022/12/26 06:38:47;;;;;;;2.75;1.40;;;13.90;99.90;;;;;;4885301;29;20483;-80
2022/12/26 06:41:16;;;;;;;1.45;1.10;;;13.90;99.90;;;;;;4892588;29;20514;-81
2022/12/26 06:43:43;;;;;;;1.40;1.10;;;13.90;99.90;;;;;;4890233;29;20052;-82
2022/12/26 06:46:14;;;;;;;2.33;1.20;;;13.90;99.90;;;;;;4890331;29;20423;-82
2022/12/26 06:48:41;;;;;;;3.50;1.40;;;13.90;99.90;;;;;;4891129;29;20079;-81
2022/12/26 06:51:13;;;;;;;3.00;1.42;;;14.00;99.90;;;;;;4891819;29;20052;-80
2022/12/26 06:53:40;;;;;;;2.28;1.15;;;14.00;99.90;;;;;;4891064;29;20059;-80
2022/12/26 06:56:17;;;;;;;3.17;1.10;;;13.90;99.90;;;;;;4889952;29;20139;-82
2022/12/26 06:58:45;;;;;;;2.55;1.13;;;14.00;99.90;;;;;;4890548;29;20049;-81
2022/12/26 07:01:14;;;;;;;1.63;0.90;;;13.90;99.90;;;;;;4891672;29;20049;-82
2022/12/26 07:03:42;;;;;;;2.13;1.20;;;13.90;99.90;;;;;;4889564;29;20100;-81
2022/12/26 07:06:20;;;;;;;3.83;1.20;;;13.90;99.90;;;;;;4891715;29;20053;-82
2022/12/26 07:08:47;;;;;;;1.20;1.00;;;13.90;99.90;;;;;;4899141;29;20076;-80
2022/12/26 07:11:19;;;;;;;5.35;1.40;;;13.90;99.90;;;;;;4892623;29;20056;-79
2022/12/26 07:13:45;;;;;;;5.38;2.03;;;13.90;99.90;;;;;;4882018;29;20447;-80
2022/12/26 07:16:13;;;;;;;3.63;1.48;;;13.90;99.90;;;;;;4882603;29;20056;-82
2022/12/26 07:18:40;;;;;;;1.80;1.27;;;14.00;99.90;;;;;;4886536;29;20049;-82
2022/12/26 07:21:08;;;;;;;1.55;1.30;;;14.00;99.90;;;;;;4893458;29;20059;-82
2022/12/26 07:23:35;;;;;;;3.28;1.40;;;14.00;99.90;;;;;;4887963;29;20053;-82
2022/12/26 07:26:02;;;;;;;3.75;1.40;;;14.00;99.90;;;;;;4897495;29;20147;-81
2022/12/26 07:28:29;;;;;;;1.33;1.13;;;14.00;99.90;;;;;;4885706;29;20060;-82
2022/12/26 07:30:56;;;;;;;5.20;1.40;;;14.00;99.90;;;;;;4883165;29;20056;-81
2022/12/26 07:33:23;;;;;;;2.58;1.42;;;14.00;99.90;;;;;;4898179;29;20435;-81
2022/12/26 07:35:49;;;;;;;3.08;1.60;;;14.00;99.90;;;;;;4882538;29;20056;-82
2022/12/26 07:38:16;;;;;;;2.55;1.33;;;14.00;99.90;;;;;;4883665;29;20148;-84
2022/12/26 07:40:43;;;;;;;1.77;1.08;;;14.00;99.90;;;;;;4892461;29;20048;-80
2022/12/26 07:43:10;;;;;;;3.45;1.40;;;14.00;99.90;;;;;;4905587;29;20056;-80
2022/12/26 07:45:37;;;;;;;4.00;1.42;;;14.00;99.90;;;;;;4896674;29;20053;-80
2022/12/26 07:48:11;;;;;;;2.13;1.70;;;14.00;99.90;;;;;;4892147;29;20064;-82
2022/12/26 07:50:37;;;;;;;4.15;1.92;;;13.90;99.90;;;;;;4897696;29;20052;-81
2022/12/26 07:53:04;;;;;;;6.00;2.25;;;13.70;99.90;;;;;;4897505;29;20093;-81
2022/12/26 07:55:31;;;;;;;6.30;2.85;;;13.50;99.90;;;;;;4903022;29;20059;-79
2022/12/26 07:57:57;;;;;;;4.13;2.88;;;13.30;99.90;;;;;;4899408;29;20045;-80
2022/12/26 08:00:24;;;;;;;4.32;2.58;;;13.10;99.90;;;;;;4896530;29;20069;-80
2022/12/26 08:02:52;;;;;;;8.63;3.03;;;13.00;99.90;;;;;;4884721;29;20052;-82
2022/12/26 08:05:19;;;;;;;7.18;3.35;;;13.00;99.90;;;;;;4884992;29;20541;-81
2022/12/26 08:07:47;;;;;;;6.82;3.10;;;12.90;99.90;;;;;;4891519;29;20061;-81
2022/12/26 08:10:17;;;;;;;5.63;3.30;;;12.80;99.90;;;;;;4887945;29;20116;-81
2022/12/26 08:12:44;;;;;;;5.90;3.13;;;12.70;99.90;;;;;;4896214;29;20139;-81
2022/12/26 08:15:12;;;;;;;4.45;2.65;;;12.70;99.90;;;;;;4902490;29;20055;-81
2022/12/26 08:17:39;;;;;;;4.07;3.03;;;12.60;99.90;;;;;;4894929;29;20045;-80
2022/12/26 08:20:06;;;;;;;4.35;3.22;;;12.60;99.90;;;;;;4895172;29;20522;-81
2022/12/26 08:22:32;;;;;;;3.97;3.00;;;12.60;99.90;;;;;;4893210;29;20083;-82
2022/12/26 08:24:59;;;;;;;3.97;3.08;;;12.60;99.90;;;;;;4891185;29;20052;-81
2022/12/26 08:27:26;;;;;;;3.13;2.10;;;12.50;99.90;;;;;;4894944;29;20136;-81
2022/12/26 08:29:52;;;;;;;5.10;2.92;;;12.60;99.90;;;;;;4885333;29;20525;-81
2022/12/26 08:32:19;;;;;;;5.07;3.00;;;12.60;99.90;;;;;;4884477;29;20072;-80
2022/12/26 08:34:46;;;;;;;7.32;4.90;;;12.70;99.90;;;;;;4889267;29;20059;-80
2022/12/26 08:37:13;;;;;;;6.15;3.97;;;12.70;99.90;;;;;;4896043;29;20049;-81
2022/12/26 08:39:39;;;;;;;6.88;3.15;;;12.70;99.90;;;;;;4887680;29;20059;-81
2022/12/26 08:42:06;;;;;;;4.25;2.60;;;12.70;99.90;;;;;;4897166;29;20091;-81
2022/12/26 08:44:33;;;;;;;3.88;2.88;;;12.80;99.90;;;;;;4886263;29;20053;-81
2022/12/26 08:46:59;;;;;;;7.13;2.80;;;12.80;99.90;;;;;;4884826;29;20452;-80
2022/12/26 08:49:26;;;;;;;7.75;3.00;;;12.80;99.90;;;;;;4885522;29;20084;-80
2022/12/26 08:51:53;;;;;;;3.85;2.97;;;12.80;99.90;;;;;;4894619;29;20135;-80
2022/12/26 08:54:19;;;;;;;4.38;2.80;;;12.80;99.90;;;;;;4889996;29;20063;-80
2022/12/26 08:56:46;;;;;;;4.10;2.75;;;12.90;99.90;;;;;;4895671;29;20064;-81
2022/12/26 08:59:13;;;;;;;4.68;3.20;;;12.90;99.90;;;;;;4890306;29;20136;-81
2022/12/26 09:01:40;;;;;;;4.53;3.20;;;12.90;99.90;;;;;;4895815;29;20049;-81
2022/12/26 09:04:07;;;;;;;4.05;2.72;;;12.90;99.90;;;;;;4884507;29;20108;-81
2022/12/26 09:06:36;;;;;;;5.35;3.28;;;12.90;99.90;;;;;;4883894;29;20049;-80
2022/12/26 09:09:04;;;;;;;5.93;3.55;;;12.90;99.90;;;;;;4891503;29;20052;-81
2022/12/26 09:11:31;;;;;;;4.95;3.03;;;12.90;99.90;;;;;;4900023;29;20053;-82
2022/12/26 09:14:00;;;;;;;5.45;3.28;;;12.80;99.90;;;;;;4891518;29;20057;-81
2022/12/26 09:16:30;;;;;;;5.72;3.63;;;12.80;99.90;;;;;;4892701;29;20511;-80
2022/12/26 09:19:05;;;;;;;9.63;3.45;;;12.80;99.90;;;;;;4892022;29;20061;-81
2022/12/26 09:21:32;;;;;;;6.05;3.65;;;12.80;99.90;;;;;;4893440;29;20116;-81
2022/12/26 09:24:01;;;;;;;6.32;3.58;;;12.70;99.90;;;;;;4891761;29;20052;-80
2022/12/26 09:26:28;;;;;;;6.10;3.75;;;12.70;99.90;;;;;;4892967;29;20136;-82
2022/12/26 09:28:55;;;;;;;5.90;3.65;;;12.60;99.90;;;;;;4891748;29;20067;-81
2022/12/26 09:31:24;;;;;;;6.13;3.15;;;12.60;99.90;;;;;;4893313;29;20057;-80
2022/12/26 09:33:52;;;;;;;5.97;3.28;;;12.60;99.90;;;;;;4895539;29;20487;-80
2022/12/26 09:36:21;;;;;;;7.85;4.60;;;12.60;99.90;;;;;;4893524;29;20052;-80
2022/12/26 09:38:49;;;;;;;9.50;6.40;;;12.50;99.90;;;;;;4892701;29;20055;-81
2022/12/26 09:41:39;;;;;;;5.00;3.80;;;12.50;99.90;;;;;;4899886;29;20143;-80
2022/12/26 09:44:20;;;;;;;4.95;3.63;;;12.50;99.90;;;;;;4891569;29;20053;-82
2022/12/26 09:47:16;;;;;;;7.55;3.60;;;12.50;99.90;;;;;;4889970;29;20052;-81
2022/12/26 09:49:45;;;;;;;4.90;3.35;;;12.50;99.90;;;;;;4890863;29;20052;-81
2022/12/26 09:52:19;;;;;;;6.03;3.08;;;12.50;99.90;;;;;;4892546;29;20052;-82
2022/12/26 09:54:53;;;;;;;5.32;2.90;;;12.50;99.90;;;;;;4894279;29;20184;-81
2022/12/26 09:57:33;;;;;;;6.80;3.47;;;12.50;99.90;;;;;;4893303;29;20499;-81
2022/12/26 10:00:04;;;;;;;5.35;3.50;;;12.50;99.90;;;;;;4890319;29;20499;-82
2022/12/26 10:02:31;;;;;;;5.30;3.30;;;12.50;99.90;;;;;;4894464;29;20049;-80
2022/12/26 10:04:58;;;;;;;4.53;3.00;;;12.50;99.90;;;;;;4890203;29;20045;-80
2022/12/26 10:07:36;;;;;;;4.53;2.72;;;12.40;99.90;;;;;;4890131;29;20074;-82
2022/12/26 10:10:12;;;;;;;4.22;2.60;;;12.40;99.90;;;;;;4888889;29;20056;-82
2022/12/26 10:12:45;;;;;;;4.93;2.47;;;12.40;99.90;;;;;;4891819;29;20052;-80
2022/12/26 10:15:49;;;;;;;3.65;2.13;;;12.40;99.90;;;;;;4889986;29;20112;-81
2022/12/26 10:18:38;;;;;;;3.75;2.20;;;12.40;99.90;;;;;;4857792;29;20045;-82
2022/12/26 10:21:42;;;;;;;5.95;2.80;;;12.30;99.90;;;;;;4897478;29;20054;-81
2022/12/26 10:24:15;;;;;;;3.90;2.20;;;12.30;99.90;;;;;;4891009;29;20053;-80
2022/12/26 10:26:48;;;;;;;4.25;2.22;;;12.30;99.90;;;;;;4899301;29;20057;-80
2022/12/26 10:29:24;;;;;;;4.28;2.00;;;12.30;99.90;;;;;;4894365;29;20056;-81
2022/12/26 10:32:05;;;;;;;3.15;2.10;;;12.30;99.90;;;;;;4897783;29;20090;-81
2022/12/26 10:34:38;;;;;;;4.07;2.53;;;12.30;99.90;;;;;;4892472;29;20055;-81
2022/12/26 10:37:20;;;;;;;3.47;2.10;;;12.30;99.90;;;;;;4887541;29;20072;-81
2022/12/26 10:39:55;;;;;;;2.83;1.60;;;12.30;99.90;;;;;;4892638;29;20274;-81
2022/12/26 10:42:40;;;;;;;2.72;2.03;;;12.30;99.90;;;;;;4902984;29;20062;-81
2022/12/26 10:45:16;;;;;;;2.92;1.90;;;12.40;99.90;;;;;;4890586;29;20045;-81
2022/12/26 10:47:45;;;;;;;2.83;1.98;;;12.30;99.90;;;;;;4885465;29;20069;-80
2022/12/26 10:50:17;;;;;;;2.33;1.70;;;12.30;99.90;;;;;;4891553;29;20135;-81
2022/12/26 10:52:52;;;;;;;;;;;12.30;99.90;;;;;;4894881;29;20052;-81
2022/12/26 10:55:26;;;;;;;3.03;1.70;;;12.30;99.90;;;;;;4893220;29;19923;-81
2022/12/26 10:58:16;;;;;;;1.95;1.30;;;12.20;99.90;;;;;;4898979;29;20051;-81
2022/12/26 11:00:43;;;;;;;3.88;1.40;;;12.20;99.90;;;;;;4889927;29;20053;-81
2022/12/26 11:03:18;;;;;;;1.70;1.20;;;12.20;99.90;;;;;;4898606;29;20055;-83
2022/12/26 11:05:54;;;;;;;3.15;1.55;;;12.20;99.90;;;;;;4890331;29;20063;-81
2022/12/26 11:08:48;;;;;;;1.95;1.27;;;12.20;99.90;;;;;;4891587;29;20053;-81
2022/12/26 11:11:24;;;;;;;2.80;1.38;;;12.20;99.90;;;;;;4895435;29;20499;-81
2022/12/26 11:13:59;;;;;;;2.58;1.50;;;12.20;99.90;;;;;;4891770;29;20517;-82
2022/12/26 11:16:32;;;;;;;2.13;1.58;;;12.10;99.90;;;;;;4890551;29;20049;-81
2022/12/26 11:18:59;;;;;;;4.93;1.40;;;12.10;99.90;;;;;;4897418;29;20104;-81
2022/12/26 11:21:29;;;;;;;1.98;1.30;;;12.20;99.90;;;;;;4892108;29;20567;-81
2022/12/26 11:24:08;;;;;;;1.58;1.30;;;12.20;99.90;;;;;;4903358;29;20056;-80
2022/12/26 11:26:38;;;;;;;1.70;1.27;;;12.20;99.90;;;;;;4892112;29;20056;-82
2022/12/26 11:29:23;;;;;;;3.20;1.27;;;12.20;99.90;;;;;;4892539;29;20056;-81
2022/12/26 11:31:56;;;;;;;1.38;1.27;;;12.10;99.90;;;;;;4896713;29;20530;-81
2022/12/26 11:34:33;;;;;;;1.42;1.10;;;12.10;99.90;;;;;;4899705;29;20057;-82
2022/12/26 11:37:00;;;;;;;3.08;1.27;;;12.10;99.90;;;;;;4896611;29;20056;-81
2022/12/26 11:39:35;;;;;;;2.33;1.42;;;12.00;99.90;;;;;;4899387;29;20055;-81
2022/12/26 11:42:10;;;;;;;2.25;1.55;;;12.00;99.90;;;;;;4896921;29;20443;-81
2022/12/26 11:44:43;;;;;;;2.65;1.30;;;12.00;99.90;;;;;;4886637;29;20055;-82
2022/12/26 11:47:15;;;;;;;3.40;1.75;;;12.00;99.90;;;;;;4885216;29;20055;-81
2022/12/26 11:50:06;;;;;;;3.25;1.60;;;12.00;99.90;;;;;;4883708;29;20057;-81
2022/12/26 11:52:41;;;;;;;1.42;1.00;;;12.00;99.90;;;;;;4888554;29;20139;-81
2022/12/26 11:55:26;;;;;;;4.63;1.85;;;12.00;99.90;;;;;;4896466;29;20056;-82
2022/12/26 11:58:00;;;;;;;3.35;1.33;;;12.00;99.90;;;;;;4891300;29;20136;-82
2022/12/26 12:00:28;;;;;;;2.72;1.85;;;12.00;99.90;;;;;;4904145;29;20045;-81
2022/12/26 12:02:55;;;;;;;1.35;1.02;;;12.00;99.90;;;;;;4897864;29;20055;-81
2022/12/26 12:05:40;;;;;;;1.17;1.08;;;11.90;99.90;;;;;;4898564;29;20486;-81
2022/12/26 12:08:28;;;;;;;1.55;1.17;;;11.90;99.90;;;;;;4889461;29;20045;-82
2022/12/26 12:11:06;;;;;;;1.73;0.93;;;11.90;99.90;;;;;;4898418;29;20135;-82
2022/12/26 12:14:09;;;;;;;1.27;1.17;;;11.90;99.90;;;;;;4886126;29;20053;-81
2022/12/26 12:16:51;;;;;;;0.95;0.77;;;11.90;99.90;;;;;;4894627;29;20112;-82
2022/12/26 12:19:37;;;;;;;1.13;0.95;;;11.80;99.90;;;;;;4886721;29;20108;-80
2022/12/26 12:22:06;;;;;;;1.08;0.95;;;11.80;99.90;;;;;;4909034;29;20048;-80
2022/12/26 12:24:36;;;;;;;1.17;1.08;;;11.80;99.90;;;;;;4883289;29;20135;-82
2022/12/26 12:27:28;;;;;;;1.98;1.05;;;11.80;99.90;;;;;;4883293;29;20092;-82
2022/12/26 12:30:33;;;;;;;1.25;1.10;;;11.80;99.90;;;;;;4899530;29;20063;-82
2022/12/26 12:33:23;;;;;;;1.95;0.85;;;11.70;99.90;;;;;;4900421;29;20059;-81
2022/12/26 12:36:10;;;;;;;3.63;1.30;;;11.70;99.90;;;;;;4897060;29;20048;-82
2022/12/26 12:39:17;;;;;;;1.65;1.00;;;11.70;99.90;;;;;;4898264;29;20123;-81
2022/12/26 12:42:13;;;;;;;1.02;0.82;;;11.70;99.90;;;;;;4891478;29;20045;-82
2022/12/26 12:45:11;;;;;;;2.15;1.20;;;11.70;99.90;;;;;;4897232;29;20064;-81
2022/12/26 12:47:55;;;;;;;1.63;0.88;;;11.70;99.90;;;;;;4907062;29;20079;-80
2022/12/26 12:50:33;;;;;;;1.33;0.55;;;11.70;99.90;;;;;;4903581;29;20061;-80
2022/12/26 12:53:11;;;;;;;1.65;1.00;;;11.70;99.90;;;;;;4898921;29;20135;-81
2022/12/26 12:55:56;;;;;;;1.83;1.17;;;11.70;99.90;;;;;;4894665;29;20060;-80
2022/12/26 12:58:52;;;;;;;2.17;0.73;;;11.70;99.90;;;;;;4892089;29;20506;-81
2022/12/26 13:01:40;;;;;;;1.75;1.10;;;11.70;99.90;;;;;;4898415;29;20052;-81
2022/12/26 13:04:32;;;;;;;1.65;1.20;;;11.70;99.90;;;;;;4898062;29;20056;-81
2022/12/26 13:07:07;;;;;;;1.50;1.05;;;11.80;99.90;;;;;;4891504;29;20048;-80
2022/12/26 13:09:52;;;;;;;1.05;0.98;;;11.80;99.90;;;;;;4899948;29;20052;-82
2022/12/26 13:12:30;;;;;;;0.55;0.52;;;11.70;99.90;;;;;;4893792;29;20083;-80
2022/12/26 13:15:01;;;;;;;1.38;0.80;;;11.80;99.90;;;;;;4900426;29;20044;-81
2022/12/26 13:17:37;;;;;;;1.65;1.00;;;11.70;99.90;;;;;;4894990;29;20063;-82
2022/12/26 13:20:31;;;;;;;1.65;0.80;;;11.70;99.90;;;;;;4889638;29;20136;-80
2022/12/26 13:26:12;;;;;;;0.70;0.70;;;11.80;99.90;;;;;;4896154;29;20056;-79
2022/12/26 13:28:51;;;;;;;1.08;0.70;;;11.70;99.90;;;;;;4890324;29;20485;-80
2022/12/26 13:31:19;;;;;;;0.93;0.88;;;11.70;99.90;;;;;;4885065;29;20048;-80
2022/12/26 13:33:45;;;;;;;1.75;0.85;;;11.70;99.90;;;;;;4893565;29;20048;-80
2022/12/26 13:36:43;;;;;;;0.75;0.73;;;11.70;99.90;;;;;;4888539;29;20051;-81
2022/12/26 13:39:25;;;;;;;1.60;1.30;;;11.70;99.90;;;;;;4894534;29;20053;-80
2022/12/26 13:45:37;;;;;;;1.20;1.02;;;11.70;99.90;;;;;;4884211;29;20057;-81
2022/12/26 13:48:17;;;;;;;1.90;1.10;;;11.70;99.90;;;;;;4891326;29;20160;-81
2022/12/26 13:50:50;;;;;;;1.35;0.93;;;11.70;99.90;;;;;;4889828;29;20088;-81
2022/12/26 13:53:27;;;;;;;2.45;0.95;;;11.70;99.90;;;;;;4882069;29;20053;-81
2022/12/26 13:56:03;;;;;;;1.42;0.93;;;11.70;99.90;;;;;;4881722;29;20077;-81
2022/12/26 13:58:42;;;;;;;0.95;0.93;;;11.70;99.90;;;;;;4891132;29;20143;-84
2022/12/26 14:01:45;;;;;;;1.35;1.00;;;11.70;99.90;;;;;;4901439;29;20052;-83
2022/12/26 14:04:40;;;;;;;3.28;0.80;;;11.70;99.90;;;;;;4890407;29;20052;-82
2022/12/26 14:07:21;;;;;;;0.80;0.73;;;11.70;99.90;;;;;;4897162;29;20554;-82
2022/12/26 14:09:48;;;;;;;1.05;0.82;;;11.70;99.90;;;;;;4895914;29;20063;-83
2022/12/26 14:12:46;;;;;;;0.60;0.60;;;11.70;99.90;;;;;;4897443;29;20147;-83
2022/12/26 14:15:55;;;;;;;1.38;0.70;;;11.60;99.90;;;;;;4892760;29;20048;-83
2022/12/26 14:18:38;;;;;;;2.20;0.88;;;11.70;99.90;;;;;;4896096;29;20144;-83
2022/12/26 14:21:38;;;;;;;1.92;0.85;;;11.70;99.90;;;;;;4900678;29;20139;-83
2022/12/26 14:24:11;;;;;;;1.75;1.25;;;11.70;99.90;;;;;;4893027;29;20059;-84
2022/12/26 14:26:48;;;;;;;1.33;1.00;;;11.70;99.90;;;;;;4892333;29;20080;-83
2022/12/26 14:29:31;;;;;;;1.27;1.02;;;11.70;99.90;;;;;;4891590;29;20140;-83
2022/12/26 14:32:11;;;;;;;2.50;1.30;;;11.70;99.90;;;;;;4900636;29;20059;-82
2022/12/26 14:34:58;;;;;;;1.77;0.93;;;11.80;99.90;;;;;;4893111;29;20052;-82
2022/12/26 14:37:50;;;;;;;1.55;0.90;;;11.80;99.90;;;;;;4898602;29;20052;-82
2022/12/26 14:40:34;;;;;;;0.90;0.80;;;11.80;99.90;;;;;;4891145;29;20066;-83
2022/12/26 14:43:15;;;;;;;1.13;0.73;;;11.80;99.90;;;;;;4893389;29;20049;-84
2022/12/26 14:45:50;;;;;;;0.70;0.70;;;11.80;99.90;;;;;;4885163;29;20593;-81
2022/12/26 14:48:17;;;;;;;2.00;0.93;;;11.80;99.90;;;;;;4892355;29;20526;-83
2022/12/26 14:50:54;;;;;;;2.70;1.50;;;11.80;99.90;;;;;;4893868;29;20068;-82
2022/12/26 14:53:23;;;;;;;1.50;1.05;;;11.80;99.90;;;;;;4894604;29;20143;-83
2022/12/26 14:56:23;;;;;;;1.73;1.00;;;11.90;99.90;;;;;;4886647;29;20080;-83
2022/12/26 14:59:22;;;;;;;1.38;1.00;;;11.90;99.90;;;;;;4868577;29;20293;-84
2022/12/26 15:02:01;;;;;;;4.45;0.90;;;11.80;99.90;;;;;;4887528;29;20044;-83
2022/12/26 15:04:54;;;;;;;0.98;0.98;;;11.80;99.90;;;;;;4893829;29;20056;-83
2022/12/26 15:07:39;;;;;;;1.10;0.90;;;11.80;99.90;;;;;;4893987;29;20063;-82
2022/12/26 15:10:18;;;;;;;2.30;0.80;;;11.80;99.90;;;;;;4890202;29;20491;-82
2022/12/26 15:13:16;;;;;;;2.17;1.00;;;11.80;99.90;;;;;;4892341;29;20057;-83
2022/12/26 15:16:08;;;;;;;1.35;1.00;;;11.80;99.90;;;;;;4881788;29;20045;-82
2022/12/26 15:19:01;;;;;;;2.13;1.10;;;11.80;99.90;;;;;;4880142;29;20059;-82
2022/12/26 15:22:05;;;;;;;1.67;1.00;;;11.80;99.90;;;;;;4897069;29;20091;-81
2022/12/26 15:25:10;;;;;;;2.95;1.20;;;11.80;99.90;;;;;;4893870;29;20063;-81
2022/12/26 15:27:55;;;;;;;1.30;1.20;;;11.80;99.90;;;;;;4888661;29;20137;-81
2022/12/26 15:30:54;;;;;;;2.90;1.70;;;11.80;99.90;;;;;;4893884;29;20064;-79
2022/12/26 15:33:37;;;;;;;1.50;1.13;;;11.80;99.90;;;;;;4893267;29;20053;-79
2022/12/26 15:36:18;;;;;;;2.97;1.00;;;11.80;99.90;;;;;;4888893;29;20053;-80
2022/12/26 15:38:55;;;;;;;1.90;1.20;;;11.70;99.90;;;;;;4893216;29;20076;-80
2022/12/26 15:41:46;;;;;;;1.90;1.48;;;11.70;99.90;;;;;;4885922;29;20504;-79
2022/12/26 15:44:42;;;;;;;2.00;1.42;;;11.80;99.90;;;;;;4891426;29;20068;-80